createdAt,value
2023-05-22T00:00:35.632Z,9.30
2023-05-22T00:03:05.956Z,9.20
2023-05-22T00:05:39.495Z,9.10
2023-05-22T00:08:11.622Z,9.10
2023-05-22T00:10:41.337Z,9.10
2023-05-22T00:13:09.607Z,9.10
2023-05-22T00:15:37.605Z,8.90
2023-05-22T00:18:06.360Z,8.80
2023-05-22T00:20:39.572Z,8.60
2023-05-22T00:23:12.607Z,8.50
2023-05-22T00:25:43.289Z,8.40
2023-05-22T00:28:13.333Z,8.30
2023-05-22T00:30:41.512Z,8.30
2023-05-22T00:33:09.769Z,8.40
2023-05-22T00:35:37.867Z,8.40
2023-05-22T00:38:07.241Z,8.50
2023-05-22T00:40:35.494Z,8.40
2023-05-22T00:43:08.492Z,8.40
2023-05-22T00:45:36.904Z,8.30
2023-05-22T00:48:05.322Z,8.40
2023-05-22T00:50:33.477Z,8.30
2023-05-22T00:53:02.318Z,8.10
2023-05-22T00:55:30.822Z,8.00
2023-05-22T00:57:59.070Z,7.80
2023-05-22T01:00:28.693Z,7.70
2023-05-22T01:02:56.889Z,7.60
2023-05-22T01:05:25.668Z,7.50
2023-05-22T01:07:54.365Z,7.40
2023-05-22T01:10:22.521Z,7.40
2023-05-22T01:13:01.992Z,7.30
2023-05-22T01:15:41.008Z,7.30
2023-05-22T01:18:19.826Z,7.20
2023-05-22T01:20:53.917Z,7.10
2023-05-22T01:24:13.861Z,7.00
2023-05-22T01:27:28.562Z,6.90
2023-05-22T01:30:16.091Z,6.80
2023-05-22T01:32:48.655Z,6.70
2023-05-22T01:35:19.703Z,6.60
2023-05-22T01:37:50.325Z,6.50
2023-05-22T01:40:20.370Z,6.40
2023-05-22T01:42:48.619Z,6.40
2023-05-22T01:45:16.674Z,6.40
2023-05-22T01:47:47.695Z,6.30
2023-05-22T01:50:16.241Z,6.30
2023-05-22T01:52:53.400Z,6.40
2023-05-22T01:55:29.259Z,6.50
2023-05-22T01:58:01.158Z,6.70
2023-05-22T02:00:30.022Z,6.80
2023-05-22T02:03:06.443Z,6.80
2023-05-22T02:05:35.897Z,6.80
2023-05-22T02:08:05.526Z,6.80
2023-05-22T02:10:35.161Z,6.80
2023-05-22T02:13:04.376Z,6.80
2023-05-22T02:15:33.539Z,6.80
2023-05-22T02:18:03.345Z,6.80
2023-05-22T02:20:31.504Z,6.80
2023-05-22T02:22:59.491Z,6.80
2023-05-22T02:25:27.634Z,6.80
2023-05-22T02:27:55.891Z,6.80
2023-05-22T02:30:24.624Z,6.60
2023-05-22T02:32:57.421Z,6.50
2023-05-22T02:35:27.054Z,6.40
2023-05-22T02:37:55.466Z,6.30
2023-05-22T02:40:23.490Z,6.20
2023-05-22T02:42:51.661Z,6.30
2023-05-22T02:45:19.796Z,6.40
